createdAt,value
2024-05-09T00:00:53.861Z,63.10
2024-05-09T00:03:24.429Z,62.88
2024-05-09T00:05:54.807Z,57.92
2024-05-09T00:08:25.419Z,73.78
2024-05-09T00:10:56.858Z,80.32
2024-05-09T00:13:30.010Z,72.80
2024-05-09T00:16:00.563Z,66.50
2024-05-09T00:18:33.374Z,73.25
2024-05-09T00:21:04.067Z,73.05
2024-05-09T00:23:34.667Z,82.40
2024-05-09T00:26:05.259Z,78.03
2024-05-09T00:28:38.506Z,96.50
2024-05-09T00:31:08.897Z,99.35
2024-05-09T00:33:39.502Z,92.28
2024-05-09T00:36:10.974Z,91.07
2024-05-09T00:38:41.470Z,89.15
2024-05-09T00:41:11.956Z,101.30
2024-05-09T00:43:45.172Z,91.57
2024-05-09T00:46:15.627Z,90.78
2024-05-09T00:48:46.351Z,98.80
2024-05-09T00:51:17.050Z,87.03
2024-05-09T00:53:48.753Z,87.25
2024-05-09T00:56:22.639Z,86.65
2024-05-09T00:58:56.525Z,83.15
2024-05-09T01:01:28.141Z,96.05
2024-05-09T01:03:59.203Z,96.45
2024-05-09T01:06:29.699Z,91.15
2024-05-09T01:09:00.183Z,109.38
2024-05-09T01:11:39.292Z,99.53
2024-05-09T01:14:12.816Z,102.35
2024-05-09T01:16:43.838Z,109.80
2024-05-09T01:19:27.743Z,100.20
2024-05-09T01:21:58.257Z,97.35
2024-05-09T01:24:31.369Z,110.07
2024-05-09T01:27:01.868Z,104.82
2024-05-09T01:29:32.404Z,131.30
2024-05-09T01:32:04.703Z,110.35
2024-05-09T01:34:35.194Z,112.97
2024-05-09T01:37:05.679Z,117.60
2024-05-09T01:39:38.963Z,119.25
2024-05-09T01:42:09.358Z,97.20
2024-05-09T01:44:39.766Z,102.20
2024-05-09T01:47:10.281Z,107.47
2024-05-09T01:49:40.998Z,101.55
2024-05-09T01:52:11.459Z,106.63
2024-05-09T01:54:44.522Z,115.03
2024-05-09T01:57:14.902Z,102.93
2024-05-09T01:59:45.361Z,107.80
2024-05-09T02:02:16.253Z,107.38
2024-05-09T02:04:50.415Z,106.78
2024-05-09T02:07:21.090Z,114.47
2024-05-09T02:09:55.580Z,108.20
2024-05-09T02:12:26.065Z,119.32
2024-05-09T02:14:56.598Z,111.50
2024-05-09T02:17:27.072Z,119.82
2024-05-09T02:19:57.650Z,107.72
2024-05-09T02:22:28.191Z,109.05
2024-05-09T02:25:01.303Z,121.13
2024-05-09T02:27:31.741Z,123.65
2024-05-09T02:30:02.167Z,122.70
2024-05-09T02:32:30.112Z,125.57
2024-05-09T02:35:00.806Z,144.02
2024-05-09T02:37:31.336Z,137.35
2024-05-09T02:40:01.837Z,149.38
2024-05-09T02:42:32.241Z,140.70
2024-05-09T02:45:00.188Z,138.55
2024-05-09T02:47:30.790Z,166.75
2024-05-09T02:49:58.712Z,159.13
2024-05-09T02:52:29.204Z,168.25
2024-05-09T02:54:57.150Z,178.10
2024-05-09T02:57:30.270Z,173.68
2024-05-09T02:59:58.067Z,167.88
2024-05-09T03:02:30.964Z,179.80
2024-05-09T03:04:59.462Z,185.00
2024-05-09T03:07:29.858Z,167.18
2024-05-09T03:09:57.744Z,155.15
2024-05-09T03:12:31.865Z,170.43
2024-05-09T03:14:59.676Z,171.48
2024-05-09T03:17:30.335Z,165.95
2024-05-09T03:19:58.988Z,176.00
2024-05-09T03:22:29.876Z,165.25
2024-05-09T03:24:57.713Z,170.13
2024-05-09T03:27:30.877Z,151.52
2024-05-09T03:29:58.681Z,149.02
2024-05-09T03:32:29.281Z,158.88
2024-05-09T03:34:57.180Z,170.27
2024-05-09T03:37:27.656Z,175.05
2024-05-09T03:39:58.109Z,167.52
2024-05-09T03:42:31.297Z,173.75
2024-05-09T03:45:01.976Z,182.05
2024-05-09T03:47:29.993Z,164.35
2024-05-09T03:50:00.571Z,177.65
2024-05-09T03:52:28.464Z,191.98
2024-05-09T03:54:58.897Z,179.13
2024-05-09T03:57:29.370Z,182.02
2024-05-09T03:59:59.764Z,190.10
2024-05-09T04:02:27.754Z,196.63
2024-05-09T04:04:58.249Z,192.23
2024-05-09T04:07:26.065Z,179.05
2024-05-09T04:09:56.466Z,174.55
2024-05-09T04:12:24.394Z,163.27
2024-05-09T04:14:57.455Z,174.07
2024-05-09T04:17:25.417Z,170.32
2024-05-09T04:19:55.951Z,180.13
2024-05-09T04:22:24.022Z,178.65
2024-05-09T04:24:54.428Z,184.75
2024-05-09T04:27:22.278Z,167.45
2024-05-09T04:29:52.731Z,169.23
2024-05-09T04:32:23.265Z,159.43
2024-05-09T04:34:53.849Z,172.15
2024-05-09T04:37:21.729Z,185.27
2024-05-09T04:39:52.181Z,196.57
2024-05-09T04:42:19.960Z,185.32
2024-05-09T04:44:50.372Z,183.80
2024-05-09T04:47:18.355Z,200.88
2024-05-09T04:49:51.584Z,219.05
2024-05-09T04:52:19.416Z,203.27
2024-05-09T04:54:49.838Z,205.48
2024-05-09T04:57:17.693Z,224.77
2024-05-09T04:59:48.135Z,206.55
2024-05-09T05:02:16.513Z,213.25
2024-05-09T05:04:47.125Z,204.60
2024-05-09T05:07:17.683Z,180.15
2024-05-09T05:09:48.199Z,198.63
2024-05-09T05:12:31.170Z,187.50
2024-05-09T05:15:01.619Z,197.35
2024-05-09T05:17:32.250Z,180.77
2024-05-09T05:20:00.373Z,187.02
2024-05-09T05:22:33.522Z,168.90
2024-05-09T05:25:01.410Z,188.80
2024-05-09T05:27:31.801Z,170.82
2024-05-09T05:29:59.765Z,132.93
2024-05-09T05:32:30.484Z,114.70
2024-05-09T05:34:58.439Z,92.68
2024-05-09T05:37:29.028Z,91.05
2024-05-09T05:39:59.440Z,65.18
2024-05-09T05:42:30.351Z,55.20
2024-05-09T05:44:58.161Z,41.35
2024-05-09T05:47:28.694Z,30.83
2024-05-09T05:49:56.766Z,29.73
2024-05-09T05:52:27.244Z,22.45
2024-05-09T05:54:55.452Z,22.60
2024-05-09T05:57:28.525Z,26.15
2024-05-09T05:59:56.399Z,23.42
2024-05-09T06:02:26.952Z,23.60
2024-05-09T06:04:55.248Z,26.75
2024-05-09T06:07:25.719Z,23.80
2024-05-09T06:09:53.509Z,24.25
2024-05-09T06:12:24.184Z,22.17
2024-05-09T06:14:54.792Z,20.13
2024-05-09T06:17:25.357Z,19.80
2024-05-09T06:19:53.604Z,23.83
2024-05-09T06:22:24.357Z,20.90
2024-05-09T06:24:52.141Z,23.65
2024-05-09T06:27:22.727Z,19.27
2024-05-09T06:29:50.616Z,29.92
2024-05-09T06:32:23.771Z,26.58
2024-05-09T06:34:51.657Z,22.65
2024-05-09T06:37:23.238Z,23.35
2024-05-09T06:39:51.156Z,27.55
2024-05-09T06:42:21.675Z,25.42
2024-05-09T06:44:49.503Z,25.45
2024-05-09T06:47:22.826Z,23.52
2024-05-09T06:49:50.907Z,26.38
2024-05-09T06:52:21.997Z,22.73
2024-05-09T06:54:49.846Z,19.73
2024-05-09T06:57:21.444Z,24.30
2024-05-09T06:59:49.241Z,23.95
2024-05-09T07:02:19.876Z,21.88
2024-05-09T07:04:50.626Z,22.15
2024-05-09T07:07:21.186Z,18.83
2024-05-09T07:09:49.101Z,23.02
2024-05-09T07:12:19.557Z,22.90
2024-05-09T07:14:47.583Z,19.20
2024-05-09T07:17:19.106Z,22.17
2024-05-09T07:19:47.064Z,21.45
2024-05-09T07:22:20.350Z,19.48
2024-05-09T07:24:48.172Z,20.80
2024-05-09T07:27:18.948Z,23.02
2024-05-09T07:29:46.898Z,20.33
2024-05-09T07:32:17.479Z,20.00
2024-05-09T07:34:45.414Z,22.30
2024-05-09T07:37:19.652Z,19.52
2024-05-09T07:39:47.562Z,25.35
2024-05-09T07:42:17.979Z,18.48
2024-05-09T07:44:45.837Z,19.38
2024-05-09T07:48:28.910Z,24.65
2024-05-09T07:52:00.947Z,21.33
2024-05-09T07:55:28.403Z,16.70
2024-05-09T07:57:58.967Z,18.20
2024-05-09T08:00:31.126Z,19.27
2024-05-09T08:03:02.488Z,16.95
2024-05-09T08:05:30.532Z,17.40
2024-05-09T08:08:03.640Z,19.60
2024-05-09T08:10:31.642Z,20.63
2024-05-09T08:13:02.229Z,22.83
2024-05-09T08:15:30.192Z,17.75
2024-05-09T08:18:00.817Z,17.60
2024-05-09T08:20:33.492Z,18.27
2024-05-09T08:23:08.659Z,17.83
2024-05-09T08:25:36.500Z,17.52
2024-05-09T08:28:08.028Z,17.63
2024-05-09T08:30:37.606Z,16.50
2024-05-09T08:33:09.562Z,17.02
2024-05-09T08:35:37.441Z,13.40
2024-05-09T08:38:11.326Z,12.95
2024-05-09T08:40:39.415Z,14.35
2024-05-09T08:43:13.335Z,10.68
2024-05-09T08:45:44.269Z,13.75
2024-05-09T08:48:17.359Z,12.95
2024-05-09T08:50:45.986Z,14.55
2024-05-09T08:53:27.655Z,14.90
2024-05-09T08:56:01.548Z,14.30
2024-05-09T08:58:34.253Z,18.38
2024-05-09T09:01:04.916Z,14.63
2024-05-09T09:03:40.612Z,12.95
2024-05-09T09:06:14.557Z,13.40
2024-05-09T09:08:49.701Z,15.00
2024-05-09T09:11:17.592Z,9.93
2024-05-09T09:13:47.987Z,8.05
2024-05-09T09:16:16.425Z,11.82
2024-05-09T09:18:49.736Z,9.30
2024-05-09T09:21:18.768Z,7.53
2024-05-09T09:23:51.812Z,11.25
2024-05-09T09:26:19.833Z,10.05
2024-05-09T09:28:50.894Z,9.98
2024-05-09T09:31:19.750Z,8.95
2024-05-09T09:33:50.554Z,8.85
2024-05-09T09:36:19.032Z,9.93
2024-05-09T09:38:54.680Z,10.05
2024-05-09T09:41:30.552Z,8.73
2024-05-09T09:44:01.984Z,17.17
2024-05-09T09:46:31.399Z,9.60
2024-05-09T09:49:02.204Z,10.43
2024-05-09T09:51:30.463Z,9.65
2024-05-09T09:54:08.348Z,14.73
2024-05-09T09:56:40.012Z,7.70
2024-05-09T09:59:13.250Z,8.30
2024-05-09T10:01:41.544Z,8.30
2024-05-09T10:04:15.898Z,6.60
2024-05-09T10:06:47.599Z,5.82
2024-05-09T10:09:21.659Z,7.07
2024-05-09T10:11:52.323Z,7.10
2024-05-09T10:14:25.203Z,5.68
2024-05-09T10:16:53.169Z,4.80
2024-05-09T10:19:31.156Z,5.60
2024-05-09T10:22:03.244Z,2.50
2024-05-09T10:27:37.254Z,2.75
2024-05-09T10:30:11.567Z,2.58
2024-05-09T10:32:45.250Z,2.72
2024-05-09T10:35:15.149Z,3.47
2024-05-09T10:37:46.407Z,3.22
2024-05-09T10:40:23.499Z,4.43
2024-05-09T10:43:06.282Z,2.15
2024-05-09T10:45:36.375Z,4.07
2024-05-09T10:48:07.371Z,3.83
2024-05-09T10:50:36.043Z,4.38
2024-05-09T10:53:06.851Z,4.43
2024-05-09T10:55:34.699Z,3.50
2024-05-09T10:58:08.424Z,4.32
2024-05-09T11:00:37.674Z,4.65
2024-05-09T11:03:09.170Z,9.32
2024-05-09T11:05:37.312Z,3.45
2024-05-09T11:08:09.182Z,3.50
2024-05-09T11:10:37.626Z,5.18
2024-05-09T11:13:11.000Z,3.20
2024-05-09T11:15:40.302Z,6.50
2024-05-09T11:18:12.263Z,4.43
2024-05-09T11:20:40.203Z,3.67
2024-05-09T11:23:11.665Z,3.20
2024-05-09T11:25:39.554Z,5.65
2024-05-09T11:28:12.863Z,7.10
2024-05-09T11:30:40.888Z,4.75
2024-05-09T11:33:14.533Z,4.88
2024-05-09T11:35:42.731Z,3.80
2024-05-09T11:38:13.526Z,3.50
2024-05-09T11:40:41.659Z,3.63
2024-05-09T11:43:14.900Z,4.28
2024-05-09T11:45:42.825Z,6.05
2024-05-09T11:48:13.539Z,2.50
2024-05-09T11:50:41.876Z,3.65
2024-05-09T11:53:12.535Z,6.60
2024-05-09T11:55:40.401Z,3.17
2024-05-09T11:58:17.166Z,3.83
2024-05-09T12:00:45.685Z,4.55
2024-05-09T12:03:16.811Z,3.70
2024-05-09T12:05:45.131Z,2.85
2024-05-09T12:08:16.071Z,3.30
2024-05-09T12:10:44.104Z,2.55
2024-05-09T12:13:17.460Z,1.60
2024-05-09T12:15:45.455Z,4.65
2024-05-09T12:18:16.233Z,4.85
2024-05-09T12:20:44.343Z,3.47
2024-05-09T12:23:14.778Z,2.72
2024-05-09T12:25:42.604Z,3.70
2024-05-09T12:28:13.211Z,4.70
2024-05-09T12:30:43.832Z,4.32
2024-05-09T12:33:15.426Z,3.38
2024-05-09T12:35:46.419Z,6.43
2024-05-09T12:38:18.250Z,2.83
2024-05-09T12:40:46.109Z,2.97
2024-05-09T12:43:16.662Z,1.85
2024-05-09T12:45:47.426Z,1.38
2024-05-09T12:48:18.055Z,4.35
2024-05-09T12:50:46.031Z,1.88
2024-05-09T12:53:16.703Z,4.07
2024-05-09T12:55:53.270Z,6.45
2024-05-09T12:58:27.846Z,2.78
2024-05-09T13:00:58.526Z,1.40
2024-05-09T13:03:29.199Z,3.70
2024-05-09T13:05:57.296Z,2.72
2024-05-09T13:08:28.104Z,3.30
2024-05-09T13:10:56.101Z,2.20
2024-05-09T13:13:26.706Z,5.25
2024-05-09T13:15:56.924Z,1.80
2024-05-09T13:18:30.222Z,2.33
2024-05-09T13:20:58.230Z,2.50
2024-05-09T13:23:28.930Z,2.25
2024-05-09T13:25:56.834Z,2.38
2024-05-09T13:28:27.699Z,2.25
2024-05-09T13:30:55.632Z,3.60
2024-05-09T13:33:26.347Z,2.75
2024-05-09T13:35:57.157Z,3.45
2024-05-09T13:38:27.959Z,2.28
2024-05-09T13:40:55.902Z,3.10
2024-05-09T13:43:26.873Z,3.63
2024-05-09T13:45:56.417Z,4.45
2024-05-09T13:48:27.314Z,2.63
2024-05-09T13:50:58.510Z,1.63
2024-05-09T13:53:28.904Z,1.65
2024-05-09T13:55:56.968Z,2.90
2024-05-09T13:58:27.752Z,1.90
2024-05-09T14:00:55.901Z,3.58
2024-05-09T14:03:29.769Z,7.03
2024-05-09T14:06:00.768Z,7.93
2024-05-09T14:08:32.537Z,1.73
2024-05-09T14:11:00.614Z,4.35
2024-05-09T14:13:31.382Z,2.22
2024-05-09T14:15:59.927Z,2.88
2024-05-09T14:18:30.690Z,4.90
2024-05-09T14:21:03.745Z,4.57
2024-05-09T14:23:34.234Z,3.88
2024-05-09T14:26:02.146Z,2.13
2024-05-09T14:28:32.970Z,1.80
2024-05-09T14:31:01.521Z,2.75
2024-05-09T14:33:32.191Z,1.98
2024-05-09T14:36:03.007Z,2.75
2024-05-09T14:38:33.405Z,1.92
2024-05-09T14:41:01.383Z,6.60
2024-05-09T14:43:32.542Z,3.78
2024-05-09T14:46:00.600Z,5.43
2024-05-09T14:48:31.994Z,3.25
2024-05-09T14:51:02.485Z,5.13
2024-05-09T14:53:32.958Z,3.08
2024-05-09T14:56:01.079Z,2.22
2024-05-09T14:58:31.661Z,5.13
2024-05-09T15:01:02.806Z,5.43
2024-05-09T15:03:33.469Z,2.22
2024-05-09T15:06:04.881Z,6.05
2024-05-09T15:08:35.569Z,1.63
2024-05-09T15:11:03.607Z,17.23
2024-05-09T15:13:34.230Z,6.05
2024-05-09T15:16:02.410Z,3.22
2024-05-09T15:18:33.222Z,5.95
2024-05-09T15:21:04.006Z,3.28
2024-05-09T15:23:34.484Z,4.78
2024-05-09T15:26:04.294Z,4.57
2024-05-09T15:28:34.822Z,3.00
2024-05-09T15:31:02.692Z,5.28
2024-05-09T15:33:33.251Z,3.42
2024-05-09T15:36:04.178Z,3.38
2024-05-09T15:38:35.352Z,3.88
2024-05-09T15:41:03.263Z,3.65
2024-05-09T15:43:34.036Z,2.20
2024-05-09T15:46:02.373Z,2.83
2024-05-09T15:48:33.057Z,2.42
2024-05-09T15:51:03.891Z,2.50
2024-05-09T15:53:34.353Z,3.20
2024-05-09T15:56:02.274Z,2.92
2024-05-09T15:58:32.928Z,1.45
2024-05-09T16:01:00.944Z,3.83
2024-05-09T16:03:31.773Z,3.42
2024-05-09T16:06:00.090Z,17.70
2024-05-09T16:08:33.528Z,5.88
2024-05-09T16:11:01.444Z,1.45
2024-05-09T16:13:33.708Z,2.67
2024-05-09T16:16:02.456Z,3.45
2024-05-09T16:18:33.219Z,3.35
2024-05-09T16:21:01.789Z,3.35
2024-05-09T16:23:39.301Z,6.85
2024-05-09T16:26:07.687Z,2.15
2024-05-09T16:28:38.721Z,2.53
2024-05-09T16:31:06.880Z,1.70
2024-05-09T16:33:37.608Z,8.73
2024-05-09T16:36:06.747Z,2.95
2024-05-09T16:38:41.088Z,5.72
2024-05-09T16:41:09.678Z,7.18
2024-05-09T16:43:40.266Z,3.30
2024-05-09T16:46:09.002Z,3.25
2024-05-09T16:48:40.823Z,2.78
2024-05-09T16:51:08.647Z,3.20
2024-05-09T16:53:42.313Z,2.80
2024-05-09T16:56:11.432Z,5.97
2024-05-09T16:58:42.284Z,3.63
2024-05-09T17:01:13.548Z,1.85
2024-05-09T17:03:44.230Z,3.45
2024-05-09T17:06:12.332Z,2.30
2024-05-09T17:08:45.495Z,4.00
2024-05-09T17:11:15.528Z,3.92
2024-05-09T17:13:48.212Z,4.60
2024-05-09T17:16:20.979Z,2.28
2024-05-09T17:18:51.643Z,3.92
2024-05-09T17:21:19.757Z,4.55
2024-05-09T17:23:55.813Z,1.65
2024-05-09T17:26:23.810Z,5.25
2024-05-09T17:28:54.376Z,3.60
2024-05-09T17:31:22.265Z,3.17
2024-05-09T17:33:52.976Z,1.80
2024-05-09T17:36:21.159Z,2.72
2024-05-09T17:38:54.916Z,2.33
2024-05-09T17:41:22.761Z,5.85
2024-05-09T17:43:53.224Z,2.40
2024-05-09T17:46:21.230Z,2.35
2024-05-09T17:48:52.282Z,11.23
2024-05-09T17:51:20.725Z,4.28
2024-05-09T17:53:53.827Z,4.38
2024-05-09T17:56:24.456Z,5.85
2024-05-09T17:58:52.591Z,3.78
2024-05-09T18:01:24.111Z,3.72
2024-05-09T18:03:52.230Z,3.00
2024-05-09T18:06:22.916Z,4.13
2024-05-09T18:08:53.511Z,2.83
2024-05-09T18:14:10.944Z,2.15
2024-05-09T18:16:41.425Z,2.78
2024-05-09T18:19:09.687Z,4.47
2024-05-09T18:21:41.252Z,2.17
2024-05-09T18:24:12.489Z,6.15
2024-05-09T18:26:44.827Z,3.00
2024-05-09T18:29:18.540Z,2.22
2024-05-09T18:31:50.638Z,3.72
2024-05-09T18:34:18.873Z,2.97
2024-05-09T18:36:49.555Z,3.35
2024-05-09T18:39:20.623Z,3.30
2024-05-09T18:41:51.295Z,2.53
2024-05-09T18:44:19.222Z,2.53
2024-05-09T18:46:49.807Z,3.45
2024-05-09T18:49:18.118Z,4.35
2024-05-09T18:51:49.170Z,5.32
2024-05-09T18:54:20.027Z,4.47
2024-05-09T18:56:50.565Z,2.42
2024-05-09T18:59:18.396Z,3.47
2024-05-09T19:01:49.082Z,6.15
2024-05-09T19:04:18.562Z,1.65
2024-05-09T19:06:49.473Z,4.20
2024-05-09T19:09:20.154Z,2.58
2024-05-09T19:11:50.729Z,2.38
2024-05-09T19:14:19.310Z,4.82
2024-05-09T19:16:49.765Z,2.72
2024-05-09T19:19:17.751Z,3.60
2024-05-09T19:21:48.432Z,4.03
2024-05-09T19:24:17.323Z,6.22
2024-05-09T19:26:50.541Z,3.45
2024-05-09T19:29:18.433Z,7.13
2024-05-09T19:31:49.099Z,5.25
2024-05-09T19:34:19.533Z,7.90
2024-05-09T19:36:50.228Z,5.53
2024-05-09T19:39:19.128Z,4.07
2024-05-09T19:41:52.306Z,6.57
2024-05-09T19:44:20.294Z,5.63
2024-05-09T19:46:51.730Z,4.38
2024-05-09T19:49:20.530Z,2.88
2024-05-09T19:51:51.450Z,4.47
2024-05-09T19:54:21.058Z,5.43
2024-05-09T19:56:54.393Z,7.78
2024-05-09T19:59:22.382Z,6.75
2024-05-09T20:01:53.128Z,4.10
2024-05-09T20:04:21.327Z,5.15
2024-05-09T20:06:52.033Z,7.88
2024-05-09T20:09:20.028Z,3.85
2024-05-09T20:11:50.544Z,5.22
2024-05-09T20:14:21.060Z,8.63
2024-05-09T20:16:51.664Z,5.93
2024-05-09T20:19:19.705Z,4.80
2024-05-09T20:21:50.388Z,5.03
2024-05-09T20:24:18.390Z,5.97
2024-05-09T20:26:48.992Z,5.53
2024-05-09T20:29:17.026Z,8.30
2024-05-09T20:31:50.390Z,4.80
2024-05-09T20:34:18.259Z,5.45
2024-05-09T20:36:48.851Z,6.70
2024-05-09T20:39:19.300Z,4.40
2024-05-09T20:41:49.771Z,6.57
2024-05-09T20:44:17.696Z,4.78
2024-05-09T20:46:50.974Z,5.93
2024-05-09T20:49:19.056Z,4.93
2024-05-09T20:51:49.649Z,4.53
2024-05-09T20:54:17.559Z,7.00
2024-05-09T20:56:48.010Z,5.93
2024-05-09T20:59:15.875Z,5.70
2024-05-09T21:01:49.251Z,5.03
2024-05-09T21:04:20.260Z,4.90
2024-05-09T21:06:50.842Z,4.80
2024-05-09T21:09:18.738Z,4.10
2024-05-09T21:11:49.313Z,4.90
2024-05-09T21:14:17.250Z,8.65
2024-05-09T21:16:47.810Z,5.45
2024-05-09T21:19:15.886Z,6.90
2024-05-09T21:21:50.484Z,4.80
2024-05-09T21:24:18.534Z,4.57
2024-05-09T21:26:49.008Z,5.75
2024-05-09T21:29:16.992Z,4.22
2024-05-09T21:31:47.546Z,5.13
2024-05-09T21:34:15.730Z,6.40
2024-05-09T21:36:48.999Z,4.63
2024-05-09T21:39:16.986Z,8.15
2024-05-09T21:41:47.508Z,6.55
2024-05-09T21:44:15.365Z,6.53
2024-05-09T21:46:46.050Z,6.38
2024-05-09T21:49:14.335Z,8.45
2024-05-09T21:51:45.536Z,5.85
2024-05-09T21:54:16.158Z,6.63
2024-05-09T21:56:47.386Z,7.65
2024-05-09T21:59:15.304Z,7.93
2024-05-09T22:01:46.010Z,5.57
2024-05-09T22:04:14.153Z,7.60
2024-05-09T22:06:44.786Z,6.20
2024-05-09T22:09:15.644Z,4.50
2024-05-09T22:11:47.440Z,4.78
2024-05-09T22:14:15.914Z,5.97
2024-05-09T22:16:46.511Z,5.85
2024-05-09T22:19:14.426Z,6.75
2024-05-09T22:21:49.196Z,9.27
2024-05-09T22:24:19.724Z,6.63
2024-05-09T22:26:52.116Z,7.22
2024-05-09T22:29:20.076Z,8.30
2024-05-09T22:31:50.599Z,7.22
2024-05-09T22:34:18.621Z,10.23
2024-05-09T22:36:49.319Z,8.55
2024-05-09T22:39:19.855Z,9.23
2024-05-09T22:41:50.522Z,9.50
2024-05-09T22:44:18.542Z,10.52
2024-05-09T22:46:49.157Z,5.80
2024-05-09T22:49:17.240Z,7.50
2024-05-09T22:51:48.009Z,10.80
2024-05-09T22:54:15.940Z,5.97
2024-05-09T22:56:49.212Z,7.13
2024-05-09T22:59:17.702Z,12.00
2024-05-09T23:01:48.892Z,5.30
2024-05-09T23:04:17.075Z,7.93
2024-05-09T23:06:47.814Z,7.25
2024-05-09T23:09:15.724Z,6.97
2024-05-09T23:11:49.068Z,6.07
2024-05-09T23:14:17.061Z,7.35
2024-05-09T23:16:47.610Z,7.13
2024-05-09T23:19:15.655Z,8.15
2024-05-09T23:21:46.224Z,7.78
2024-05-09T23:24:14.211Z,8.38
2024-05-09T23:26:45.981Z,6.13
2024-05-09T23:29:16.590Z,7.82
2024-05-09T23:31:47.189Z,11.23
2024-05-09T23:34:15.907Z,12.40
2024-05-09T23:36:46.754Z,11.27
2024-05-09T23:39:14.805Z,8.60
2024-05-09T23:41:45.298Z,8.48
2024-05-09T23:44:15.943Z,6.53
2024-05-09T23:46:46.576Z,12.23
2024-05-09T23:49:14.687Z,8.40
2024-05-09T23:51:45.384Z,8.60
2024-05-09T23:54:13.391Z,6.50
2024-05-09T23:56:43.978Z,11.68
2024-05-09T23:59:12.135Z,8.38
